Time;durP1;ratioP1;P1;durP2;ratioP2;P2;SDS_P1;SDS_P2;PMS_P1;PMS_P2;Temp;Humidity;BMP_temperature;BMP_pressure;BME280_temperature;BME280_humidity;BME280_pressure;Samples;Min_cycle;Max_cycle;Signal;HPM_P1;HPM_P2
2022/01/03 07:58:25;;;;;;;15.88;4.43;;;;;;;9.23;90.12;101035.88;5326283;27;1180100;-71
2022/01/03 08:00:56;;;;;;;12.93;4.47;;;;;;;9.25;90.31;101045.56;5344318;27;20031;-72
2022/01/03 08:03:27;;;;;;;16.88;5.53;;;;;;;9.28;89.99;101035.88;5343986;28;20058;-73
2022/01/03 08:05:59;;;;;;;13.40;3.90;;;;;;;9.28;89.75;101016.53;5342576;28;20406;-72
2022/01/03 08:08:30;;;;;;;16.20;4.38;;;;;;;9.33;89.09;101022.91;5343612;28;20019;-73
2022/01/03 08:11:01;;;;;;;22.27;5.18;;;;;;;9.34;89.51;101023.72;5343997;28;20375;-73
2022/01/03 08:13:33;;;;;;;22.85;6.97;;;;;;;9.34;89.33;101012.66;5342858;27;20059;-73
2022/01/03 08:16:04;;;;;;;11.63;4.85;;;;;;;9.35;89.32;101036.44;5343612;27;20504;-73
2022/01/03 08:18:36;;;;;;;17.08;4.85;;;;;;;9.39;88.54;101032.03;5333921;27;20027;-72
2022/01/03 08:21:07;;;;;;;32.97;6.43;;;;;;;9.39;87.73;101031.22;5322454;28;20072;-72
2022/01/03 08:23:38;;;;;;;16.45;5.43;;;;;;;9.39;88.25;101028.44;5334079;28;20049;-72
2022/01/03 08:26:10;;;;;;;19.70;5.65;;;;;;;9.41;88.25;101024.28;5323735;28;20031;-72
2022/01/03 08:28:41;;;;;;;17.85;5.07;;;;;;;9.41;88.68;101018.75;5321977;28;20057;-72
2022/01/03 08:31:12;;;;;;;12.55;5.03;;;;;;;9.41;87.85;101013.22;5322329;28;20020;-73
2022/01/03 08:33:44;;;;;;;17.10;4.45;;;;;;;9.42;88.19;101017.63;5333399;28;20020;-73
2022/01/03 08:36:15;;;;;;;17.30;4.38;;;;;;;9.42;88.07;101012.09;5343132;28;20077;-73
2022/01/03 08:38:46;;;;;;;19.40;5.70;;;;;;;9.44;88.15;101012.66;5343321;27;20023;-72
2022/01/03 08:41:18;;;;;;;19.83;4.68;;;;;;;9.44;88.05;101018.19;5342510;28;20019;-72
2022/01/03 08:43:50;;;;;;;20.75;5.30;;;;;;;9.46;88.34;101020.66;5343407;27;20039;-73
2022/01/03 08:46:23;;;;;;;17.63;4.85;;;;;;;9.46;87.97;101010.44;5343119;27;20103;-72
2022/01/03 08:48:55;;;;;;;12.50;3.83;;;;;;;9.47;87.55;101012.09;5342203;27;20019;-72
2022/01/03 08:51:26;;;;;;;19.17;5.40;;;;;;;9.49;88.27;101026.50;5342083;27;20077;-72
2022/01/03 08:53:59;;;;;;;19.02;5.07;;;;;;;9.51;88.31;101031.72;5338982;27;20033;-72
2022/01/03 08:56:30;;;;;;;22.88;5.30;;;;;;;9.52;88.21;101037.00;5342002;27;20088;-73
2022/01/03 08:59:03;;;;;;;18.52;4.80;;;;;;;9.52;87.83;101023.16;5341746;27;20693;-72
2022/01/03 09:01:34;;;;;;;15.40;4.22;;;;;;;9.56;87.53;101038.13;5341997;27;20074;-72
2022/01/03 09:04:05;;;;;;;13.10;4.93;;;;;;;9.63;87.09;101042.53;5339499;27;20055;-72
2022/01/03 09:06:37;;;;;;;19.13;4.90;;;;;;;9.60;87.33;101040.31;5337715;27;20032;-72
2022/01/03 09:09:08;;;;;;;15.05;4.20;;;;;;;9.63;87.28;101032.28;5331230;27;20024;-72
2022/01/03 09:11:39;;;;;;;23.70;7.07;;;;;;;9.64;86.56;101024.78;5327952;28;20077;-72
2022/01/03 09:14:11;;;;;;;15.13;4.18;;;;;;;9.71;86.75;101036.44;5327907;28;20602;-73
2022/01/03 09:16:45;;;;;;;21.15;5.20;;;;;;;9.73;86.82;101023.13;5327527;28;20466;-74
2022/01/03 09:19:19;;;;;;;19.05;4.97;;;;;;;9.78;86.03;101020.34;5327748;28;20020;-72
2022/01/03 09:21:50;;;;;;;19.63;4.35;;;;;;;9.80;86.08;101024.50;5328065;28;20066;-72
2022/01/03 09:24:43;;;;;;;16.50;4.45;;;;;;;9.82;85.65;101031.69;5327059;28;20047;-73
2022/01/03 09:30:06;;;;;;;17.05;4.60;;;;;;;9.85;85.07;101028.38;5327515;28;20114;-73
2022/01/03 09:32:38;;;;;;;16.05;5.13;;;;;;;9.84;85.08;101022.00;5327863;27;20028;-72
2022/01/03 09:35:10;;;;;;;15.75;5.00;;;;;;;9.85;85.47;101012.59;5327498;28;20085;-72
2022/01/03 09:37:41;;;;;;;18.88;5.72;;;;;;;9.87;84.83;100993.75;5325976;28;20035;-72
2022/01/03 09:40:13;;;;;;;14.40;5.07;;;;;;;9.89;85.24;101008.13;5327564;28;20072;-72
2022/01/03 09:42:49;;;;;;;20.08;4.40;;;;;;;9.89;85.26;101001.75;5327825;28;20459;-73
2022/01/03 09:45:20;;;;;;;11.18;4.47;;;;;;;9.90;85.25;100998.72;5326642;28;20020;-73
2022/01/03 09:47:54;;;;;;;13.18;5.28;;;;;;;9.92;84.33;101010.38;5326555;28;20478;-73
2022/01/03 09:50:26;;;;;;;21.67;5.20;;;;;;;9.90;85.50;101006.22;5326561;28;20463;-71
2022/01/03 09:52:57;;;;;;;14.80;4.32;;;;;;;9.90;84.64;101001.50;5327824;28;20044;-70
2022/01/03 09:55:31;;;;;;;16.52;4.88;;;;;;;9.89;84.90;101005.34;5327215;28;20118;-73
2022/01/03 09:58:02;;;;;;;21.35;4.57;;;;;;;9.88;85.02;101000.13;5325819;28;20092;-71
2022/01/03 10:00:34;;;;;;;22.38;5.35;;;;;;;9.87;85.48;101001.22;5326579;28;20068;-72
2022/01/03 10:03:05;;;;;;;19.80;6.28;;;;;;;9.88;85.53;101000.13;5326911;28;20076;-72
2022/01/03 10:05:37;;;;;;;18.60;5.40;;;;;;;9.90;85.15;100997.91;5322633;28;20015;-72
2022/01/03 10:08:08;;;;;;;21.25;4.80;;;;;;;9.92;85.33;100996.50;5326167;28;20035;-72
2022/01/03 10:10:40;;;;;;;19.33;5.40;;;;;;;9.90;85.51;100998.72;5317272;28;20048;-72
2022/01/03 10:13:14;;;;;;;14.90;5.60;;;;;;;9.92;85.73;100990.13;5305333;28;20064;-71
2022/01/03 10:15:46;;;;;;;18.88;4.63;;;;;;;9.93;84.54;100992.63;5317920;28;20103;-71
2022/01/03 10:18:19;;;;;;;19.38;5.65;;;;;;;9.94;84.97;100996.22;5326234;27;20122;-71
2022/01/03 10:20:51;;;;;;;19.10;5.65;;;;;;;9.95;84.77;100990.41;5326173;28;20023;-72
2022/01/03 10:23:22;;;;;;;18.70;4.88;;;;;;;9.98;84.84;101000.09;5326681;28;20088;-72
2022/01/03 10:26:14;;;;;;;19.10;6.05;;;;;;;10.01;84.47;101005.06;5325641;28;20051;-71
2022/01/03 10:28:45;;;;;;;26.95;12.18;;;;;;;10.01;84.61;100997.56;5327063;28;20074;-72
2022/01/03 10:31:18;;;;;;;17.55;5.70;;;;;;;10.04;84.79;100995.34;5326910;28;20024;-71
2022/01/03 10:34:09;;;;;;;19.52;4.78;;;;;;;10.04;84.16;101004.50;5325651;28;20110;-72
2022/01/03 10:36:45;;;;;;;16.65;6.38;;;;;;;10.04;84.31;100989.81;5326741;28;20030;-71
2022/01/03 10:39:19;;;;;;;15.35;4.75;;;;;;;10.07;84.36;100989.25;5325844;28;20020;-71
2022/01/03 10:42:12;;;;;;;15.43;5.63;;;;;;;10.08;83.81;100983.44;5326616;28;20016;-71
2022/01/03 10:44:44;;;;;;;16.30;5.05;;;;;;;10.09;84.43;100978.72;5326710;28;20044;-71
2022/01/03 10:47:30;;;;;;;16.95;4.97;;;;;;;10.13;83.60;100974.28;5323104;28;20077;-71
2022/01/03 10:50:18;;;;;;;;;;;;;;;10.20;83.87;100985.84;5319706;28;20420;-72
2022/01/03 10:52:49;;;;;;;16.52;4.53;;;;;;;10.17;83.32;100958.72;5326683;28;19912;-71
2022/01/03 10:55:33;;;;;;;16.42;5.32;;;;;;;10.21;83.85;100957.03;5325275;28;20088;-71
2022/01/03 10:58:06;;;;;;;21.08;6.22;;;;;;;10.23;83.94;100949.28;5325661;28;20039;-71
2022/01/03 11:00:40;;;;;;;14.35;5.43;;;;;;;10.25;82.86;100938.72;5324497;28;20776;-71
2022/01/03 11:03:39;;;;;;;14.35;4.63;;;;;;;10.25;83.38;100933.16;5319211;28;20032;-74
2022/01/03 11:10:43;;;;;;;18.42;5.72;;;;;;;10.28;82.97;100929.03;5312896;28;20501;-69
2022/01/03 11:11:58;;;;;;;16.95;6.30;;;;;;;10.33;83.43;100927.06;5325989;28;20035;-70
2022/01/03 11:14:36;;;;;;;15.67;6.13;;;;;;;10.40;82.89;100919.25;5324355;28;20012;-70
2022/01/03 11:17:27;;;;;;;12.80;4.50;;;;;;;10.44;82.27;100920.34;5322433;28;20297;-69
2022/01/03 11:20:00;;;;;;;14.40;4.55;;;;;;;10.45;81.93;100922.00;5322645;28;20028;-70
2022/01/03 11:22:49;;;;;;;16.48;4.68;;;;;;;10.48;82.46;100919.75;5316568;28;20036;-71
2022/01/03 11:25:31;;;;;;;21.15;5.43;;;;;;;10.46;82.14;100911.75;5323765;28;20084;-70
2022/01/03 11:28:04;;;;;;;19.75;5.78;;;;;;;10.47;81.06;100918.13;5325852;28;20462;-70
2022/01/03 11:30:37;;;;;;;21.00;4.88;;;;;;;10.52;81.82;100918.09;5324720;28;20028;-70
2022/01/03 11:33:09;;;;;;;16.35;5.88;;;;;;;10.45;81.49;100910.91;5325536;28;20070;-70
2022/01/03 11:35:49;;;;;;;13.48;4.32;;;;;;;10.47;81.79;100909.81;5324373;28;20024;-69
2022/01/03 11:38:23;;;;;;;16.23;4.57;;;;;;;10.46;81.51;100920.06;5325533;28;20027;-69
2022/01/03 11:41:04;;;;;;;21.25;4.85;;;;;;;10.42;81.62;100900.38;5325501;28;20077;-70
2022/01/03 11:43:37;;;;;;;14.15;4.68;;;;;;;10.39;82.07;100895.44;5324213;28;20376;-69
2022/01/03 11:46:10;;;;;;;19.17;4.35;;;;;;;10.38;82.88;100901.25;5320806;28;20486;-69
2022/01/03 11:48:41;;;;;;;14.40;4.72;;;;;;;10.36;82.84;100889.63;5324568;28;20123;-70
2022/01/03 11:51:14;;;;;;;16.70;4.72;;;;;;;10.31;83.69;100886.91;5324343;28;20099;-70
2022/01/03 11:53:48;;;;;;;16.10;4.45;;;;;;;10.26;83.58;100873.88;5324202;28;20036;-71
2022/01/03 11:56:25;;;;;;;15.18;4.90;;;;;;;10.28;83.95;100868.91;5323873;28;20068;-71
2022/01/03 11:59:22;;;;;;;11.10;4.68;;;;;;;10.30;83.81;100863.88;5323236;28;20085;-72
2022/01/03 12:04:56;;;;;;;9.68;3.75;;;;;;;10.30;83.04;100865.81;5319664;28;20107;-72
2022/01/03 12:07:29;;;;;;;15.55;4.32;;;;;;;10.28;83.36;100859.72;5310686;28;20015;-72
2022/01/03 12:10:09;;;;;;;14.20;4.35;;;;;;;10.31;83.17;100848.91;5325270;28;20043;-72
2022/01/03 12:12:41;;;;;;;13.63;4.10;;;;;;;10.35;83.69;100844.44;5324507;28;20024;-73
2022/01/03 12:15:33;;;;;;;13.68;4.15;;;;;;;10.39;82.93;100845.53;5312784;28;20032;-71
2022/01/03 12:18:31;;;;;;;13.85;3.90;;;;;;;10.40;82.27;100841.63;5319180;28;20031;-71
2022/01/03 12:21:02;;;;;;;18.98;5.03;;;;;;;10.38;82.73;100843.88;5320980;28;20107;-70
2022/01/03 12:23:39;;;;;;;14.38;4.28;;;;;;;10.41;82.22;100834.16;5303932;28;20123;-71
2022/01/03 12:26:23;;;;;;;16.45;5.97;;;;;;;10.43;82.35;100845.75;5312422;28;20106;-71
2022/01/03 12:29:07;;;;;;;15.73;4.18;;;;;;;10.43;81.84;100831.91;5309340;28;20028;-70
2022/01/03 12:32:06;;;;;;;10.05;4.32;;;;;;;10.48;81.32;100842.13;5321413;28;20034;-69
2022/01/03 12:34:39;;;;;;;12.43;3.45;;;;;;;10.44;82.50;100826.06;5321223;28;20028;-70
2022/01/03 12:37:22;;;;;;;12.05;3.90;;;;;;;10.41;83.27;100820.28;5323990;28;20048;-71
2022/01/03 12:40:05;;;;;;;13.68;4.72;;;;;;;10.39;82.57;100805.88;5312948;28;20028;-72
2022/01/03 12:42:54;;;;;;;14.38;5.03;;;;;;;10.41;82.45;100803.66;5324392;28;20110;-70
2022/01/03 12:45:25;;;;;;;15.05;4.78;;;;;;;10.38;81.96;100805.06;5328776;28;20035;-70
2022/01/03 12:48:11;;;;;;;13.57;4.33;;;;;;;10.40;82.28;100802.81;5325422;28;20023;-77
2022/01/03 12:51:02;;;;;;;9.30;3.45;;;;;;;10.40;81.66;100797.25;5328062;28;20273;-77
2022/01/03 12:53:40;;;;;;;13.15;4.80;;;;;;;10.37;82.03;100802.56;5327995;28;20028;-77
2022/01/03 12:56:19;;;;;;;11.15;4.32;;;;;;;10.29;83.04;100795.69;5327960;28;20203;-76
2022/01/03 12:58:53;;;;;;;14.43;4.00;;;;;;;10.31;83.26;100789.88;5328294;27;20420;-78
2022/01/03 13:01:28;;;;;;;14.63;5.82;;;;;;;10.24;83.30;100781.84;5327437;28;20084;-77
2022/01/03 13:04:01;;;;;;;12.82;4.25;;;;;;;10.26;83.74;100784.34;5321669;27;20054;-75
2022/01/03 13:06:34;;;;;;;11.85;4.70;;;;;;;10.21;84.12;100780.47;5324880;28;20055;-82
2022/01/03 13:09:11;;;;;;;14.43;5.25;;;;;;;10.24;84.03;100776.31;5327097;28;20358;-79
2022/01/03 13:11:49;;;;;;;14.70;3.85;;;;;;;10.19;83.28;100773.56;5319688;28;20027;-79
2022/01/03 13:14:22;;;;;;;12.88;4.43;;;;;;;10.20;83.19;100762.22;5326065;28;20038;-80
2022/01/03 13:17:00;;;;;;;12.82;4.95;;;;;;;10.22;83.54;100761.91;5328415;28;20120;-82
2022/01/03 13:19:36;;;;;;;14.45;3.97;;;;;;;10.20;83.99;100755.81;5327203;28;20110;-81
2022/01/03 13:22:14;;;;;;;11.93;3.78;;;;;;;10.17;83.39;100742.53;5329390;28;20012;-80
2022/01/03 13:24:46;;;;;;;12.52;4.47;;;;;;;10.18;83.91;100744.22;5328725;27;20372;-79
2022/01/03 13:27:22;;;;;;;13.65;5.40;;;;;;;10.16;82.95;100744.50;5327688;28;20411;-80
2022/01/03 13:29:57;;;;;;;9.07;3.50;;;;;;;10.17;83.20;100739.78;5326433;27;20398;-71
2022/01/03 13:32:30;;;;;;;;;;;;;;;10.20;82.77;100739.19;5328208;28;20094;-71
2022/01/03 13:35:03;;;;;;;9.15;4.22;;;;;;;10.14;82.60;100738.41;5326662;28;20371;-74
2022/01/03 13:37:35;;;;;;;9.70;2.80;;;;;;;10.09;82.05;100734.84;5326789;28;20039;-74
2022/01/03 13:40:06;;;;;;;12.60;6.45;;;;;;;10.11;82.48;100733.44;5326931;28;20490;-74
2022/01/03 13:42:47;;;;;;;7.53;3.35;;;;;;;10.15;82.07;100733.69;5321883;28;20075;-74
2022/01/03 13:50:49;;;;;;;7.78;2.75;;;;;;;10.06;81.11;100729.91;5321533;28;20093;-73
2022/01/03 13:53:21;;;;;;;6.65;2.78;;;;;;;10.12;80.88;100723.19;5327103;28;20031;-74
2022/01/03 13:55:55;;;;;;;8.15;2.60;;;;;;;10.05;81.15;100720.75;5324510;27;20020;-75
2022/01/03 13:58:27;;;;;;;6.97;2.75;;;;;;;10.01;80.75;100720.50;5326123;28;20048;-74
2022/01/03 14:01:01;;;;;;;7.75;2.47;;;;;;;9.99;80.65;100719.94;5326585;28;20030;-72
2022/01/03 14:03:33;;;;;;;9.50;3.10;;;;;;;9.97;80.48;100708.34;5326225;28;20161;-74
2022/01/03 14:06:19;;;;;;;7.18;2.28;;;;;;;9.97;80.83;100713.03;5326669;28;20099;-74
2022/01/03 14:08:53;;;;;;;6.25;2.20;;;;;;;9.92;80.85;100708.41;5326981;28;20023;-76
2022/01/03 14:11:29;;;;;;;5.05;2.47;;;;;;;9.92;81.38;100711.16;5325816;28;20137;-73
2022/01/03 14:14:14;;;;;;;6.45;3.03;;;;;;;9.98;81.56;100711.94;5326347;28;20106;-73
2022/01/03 14:16:52;;;;;;;8.57;4.07;;;;;;;9.95;81.83;100704.22;5326364;28;20073;-73
2022/01/03 14:19:28;;;;;;;10.30;1.98;;;;;;;9.91;81.82;100706.72;5324814;28;20677;-70
2022/01/03 14:22:09;;;;;;;8.45;2.53;;;;;;;9.90;82.23;100705.09;5326851;28;20458;-72
2022/01/03 14:24:57;;;;;;;5.55;2.63;;;;;;;9.92;82.38;100690.94;5325161;28;20527;-71
2022/01/03 14:27:40;;;;;;;9.57;3.00;;;;;;;9.91;81.91;100689.28;5325446;28;20023;-71
2022/01/03 14:30:24;;;;;;;6.50;2.65;;;;;;;9.91;82.20;100690.09;5325772;28;20049;-72
2022/01/03 14:32:58;;;;;;;4.57;1.98;;;;;;;9.87;82.45;100683.50;5326082;28;20405;-72
2022/01/03 14:35:41;;;;;;;7.85;2.22;;;;;;;9.87;82.56;100686.28;5316144;28;20085;-72
2022/01/03 14:38:14;;;;;;;8.20;2.65;;;;;;;9.88;82.35;100687.91;5321754;28;20024;-71
2022/01/03 14:40:48;;;;;;;6.68;2.80;;;;;;;9.91;82.24;100681.78;5324987;28;20027;-73
2022/01/03 14:43:23;;;;;;;6.85;2.08;;;;;;;9.85;82.33;100682.13;5325651;28;20053;-81
2022/01/03 14:46:09;;;;;;;6.35;2.55;;;;;;;9.86;83.19;100673.53;5325537;28;20031;-76
2022/01/03 14:48:40;;;;;;;9.00;2.47;;;;;;;9.84;82.94;100672.97;5325816;28;20019;-75
2022/01/03 14:51:12;;;;;;;6.03;2.05;;;;;;;9.92;82.54;100668.75;5315342;28;20032;-75
2022/01/03 14:53:44;;;;;;;5.82;2.55;;;;;;;9.89;82.79;100672.13;5322060;28;20027;-76
2022/01/03 14:56:26;;;;;;;9.38;2.30;;;;;;;9.93;82.60;100662.94;5325937;28;20459;-75
2022/01/03 14:59:20;;;;;;;5.25;1.90;;;;;;;9.91;82.62;100658.81;5325658;28;20114;-75
2022/01/03 15:01:54;;;;;;;6.72;2.55;;;;;;;9.87;82.70;100660.50;5325415;28;20382;-74
2022/01/03 15:04:26;;;;;;;4.50;1.80;;;;;;;9.79;82.79;100651.72;5321040;27;20106;-74
2022/01/03 15:07:11;;;;;;;5.72;2.38;;;;;;;9.82;82.83;100658.63;5324467;28;20485;-75
2022/01/03 15:09:43;;;;;;;4.38;2.35;;;;;;;9.80;82.37;100649.75;5325832;27;20036;-75
2022/01/03 15:12:15;;;;;;;4.45;2.00;;;;;;;9.79;82.80;100648.09;5325506;28;20526;-75
2022/01/03 15:14:47;;;;;;;3.60;1.52;;;;;;;9.78;82.49;100646.44;5324417;28;20157;-81
2022/01/03 15:17:18;;;;;;;6.10;2.30;;;;;;;9.77;83.02;100637.31;5333205;28;20023;-77
2022/01/03 15:19:50;;;;;;;4.82;1.80;;;;;;;9.78;82.68;100627.88;5327119;28;20039;-80
2022/01/03 15:22:21;;;;;;;2.50;1.45;;;;;;;9.74;82.62;100625.97;5334029;28;20031;-80
2022/01/03 15:24:53;;;;;;;5.20;2.00;;;;;;;9.69;82.77;100631.56;5328328;28;20307;-80
2022/01/03 15:27:24;;;;;;;7.63;2.10;;;;;;;9.71;82.62;100616.31;5326797;28;20039;-76
2022/01/03 15:29:55;;;;;;;6.55;2.75;;;;;;;9.71;83.09;100612.72;5324147;28;20024;-75
2022/01/03 15:32:26;;;;;;;5.50;2.13;;;;;;;9.69;83.06;100614.94;5325008;28;20110;-75
2022/01/03 15:34:58;;;;;;;4.13;2.03;;;;;;;9.72;82.76;100614.38;5324428;28;20047;-75
2022/01/03 15:37:29;;;;;;;5.15;1.33;;;;;;;9.71;82.51;100624.63;5323600;28;20031;-74
2022/01/03 15:40:01;;;;;;;4.53;1.55;;;;;;;9.65;83.05;100613.88;5324660;28;20126;-75
2022/01/03 15:42:35;;;;;;;5.07;1.95;;;;;;;9.65;82.55;100605.56;5324685;28;20091;-75
2022/01/03 15:45:06;;;;;;;3.05;1.45;;;;;;;9.66;83.16;100626.59;5325176;28;20513;-75
2022/01/03 15:47:38;;;;;;;3.67;1.58;;;;;;;9.63;83.23;100621.66;5324520;28;20027;-75
2022/01/03 15:50:09;;;;;;;5.20;1.60;;;;;;;9.63;82.99;100632.72;5324271;28;20030;-75
2022/01/03 15:52:40;;;;;;;4.35;1.48;;;;;;;9.64;83.12;100623.28;5324239;28;20027;-75
2022/01/03 15:55:12;;;;;;;2.80;1.48;;;;;;;9.67;82.97;100619.97;5324899;28;20471;-75
2022/01/03 15:57:43;;;;;;;5.68;2.42;;;;;;;9.72;82.50;100619.94;5323549;28;20549;-75
2022/01/03 16:00:16;;;;;;;4.40;1.83;;;;;;;9.70;82.77;100627.69;5325318;28;20028;-75
2022/01/03 16:02:47;;;;;;;3.80;2.45;;;;;;;9.63;82.89;100629.97;5322689;28;20027;-75
2022/01/03 16:05:19;;;;;;;2.97;1.80;;;;;;;9.64;82.34;100629.69;5306846;28;20032;-76
2022/01/03 16:07:50;;;;;;;4.53;1.80;;;;;;;9.70;82.92;100624.91;5311884;28;20463;-76
2022/01/03 16:10:26;;;;;;;2.33;1.50;;;;;;;9.68;82.53;100619.66;5324045;28;20035;-75
2022/01/03 16:12:57;;;;;;;;;;;;;;;9.76;82.27;100616.25;5325322;28;20034;-77
2022/01/03 16:15:29;;;;;;;5.43;2.65;;;;;;;9.73;82.03;100616.03;5324522;28;19912;-78
2022/01/03 16:18:00;;;;;;;2.45;1.45;;;;;;;9.69;82.20;100604.72;5323786;28;20160;-78
2022/01/03 16:20:31;;;;;;;5.80;1.92;;;;;;;9.69;82.58;100613.03;5329035;28;20033;-77
2022/01/03 16:23:03;;;;;;;2.35;1.40;;;;;;;9.70;82.30;100611.91;5329245;28;20024;-79
2022/01/03 16:25:34;;;;;;;3.78;1.52;;;;;;;9.72;82.34;100614.38;5328459;27;20106;-75
2022/01/03 16:28:05;;;;;;;3.67;1.50;;;;;;;9.68;82.32;100605.81;5328575;28;20509;-72
2022/01/03 16:30:37;;;;;;;3.22;1.50;;;;;;;9.68;82.20;100613.31;5329179;28;20043;-78
2022/01/03 16:33:08;;;;;;;6.97;3.47;;;;;;;9.64;82.20;100613.06;5330022;28;20534;-76
2022/01/03 16:35:40;;;;;;;2.58;1.73;;;;;;;9.64;82.27;100601.13;5328833;28;20149;-77
2022/01/03 16:38:12;;;;;;;2.63;1.92;;;;;;;9.68;82.08;100596.69;5327996;27;20106;-79
2022/01/03 16:40:48;;;;;;;5.60;2.63;;;;;;;9.73;82.76;100591.94;5328888;28;20378;-80
2022/01/03 16:43:19;;;;;;;3.53;1.98;;;;;;;9.67;82.16;100589.50;5328762;28;20042;-80
2022/01/03 16:45:51;;;;;;;3.38;2.47;;;;;;;9.66;81.98;100588.66;5328086;28;20016;-80
2022/01/03 16:48:22;;;;;;;5.45;2.67;;;;;;;9.68;82.21;100596.69;5328341;28;20031;-80
2022/01/03 16:50:53;;;;;;;4.50;2.58;;;;;;;9.65;82.37;100589.78;5328379;28;20035;-80
2022/01/03 16:53:25;;;;;;;3.17;2.30;;;;;;;9.64;82.79;100595.59;5327972;28;20107;-80
2022/01/03 16:55:56;;;;;;;2.90;2.25;;;;;;;9.63;82.26;100580.13;5328429;28;20020;-80
2022/01/03 16:58:27;;;;;;;5.43;2.22;;;;;;;9.60;82.47;100577.94;5327939;28;20574;-80
2022/01/03 17:00:59;;;;;;;3.38;2.33;;;;;;;9.60;82.77;100578.75;5327195;28;20050;-80
2022/01/03 17:03:30;;;;;;;3.05;2.40;;;;;;;9.56;82.99;100570.22;5323451;28;20366;-80
2022/01/03 17:06:05;;;;;;;4.47;2.42;;;;;;;9.64;83.19;100573.44;5325323;28;20043;-79
2022/01/03 17:08:37;;;;;;;4.82;2.65;;;;;;;9.62;82.78;100565.44;5328818;28;20040;-80
2022/01/03 17:11:09;;;;;;;4.57;2.53;;;;;;;9.58;83.29;100562.41;5326943;28;20054;-80
2022/01/03 17:13:41;;;;;;;3.78;2.50;;;;;;;9.60;82.78;100562.13;5306369;28;20020;-79
2022/01/03 17:16:15;;;;;;;4.85;2.85;;;;;;;9.52;83.01;100560.81;5327806;28;20027;-79
2022/01/03 17:18:46;;;;;;;3.42;2.50;;;;;;;9.55;83.15;100554.69;5328012;28;20043;-80
2022/01/03 17:21:18;;;;;;;4.18;2.50;;;;;;;9.51;83.41;100550.88;5327078;28;20446;-80
2022/01/03 17:23:53;;;;;;;4.65;2.38;;;;;;;9.52;83.42;100544.22;5327611;28;20020;-79
2022/01/03 17:26:25;;;;;;;5.40;3.38;;;;;;;9.52;83.72;100535.91;5327196;28;20114;-80
2022/01/03 17:28:57;;;;;;;3.53;2.30;;;;;;;9.54;83.59;100536.44;5326733;28;20103;-79
